createdAt,value
2023-04-08T00:02:04.936Z,100571.47
2023-04-08T00:04:48.698Z,100584.63
2023-04-08T00:07:33.950Z,100571.84
2023-04-08T00:10:17.935Z,100584.72
2023-04-08T00:13:02.071Z,100551.75
2023-04-08T00:15:45.950Z,100556.66
2023-04-08T00:18:29.882Z,100574.34
2023-04-08T00:21:16.538Z,100577.00
2023-04-08T00:24:01.830Z,100574.16
2023-04-08T00:26:45.596Z,100579.41
2023-04-08T00:29:29.821Z,100577.78
2023-04-08T00:32:13.866Z,100583.72
2023-04-08T00:34:57.653Z,100585.94
2023-04-08T00:37:41.906Z,100573.47
2023-04-08T00:40:27.006Z,100586.53
2023-04-08T00:43:10.724Z,100573.72
2023-04-08T00:45:54.727Z,100582.50
2023-04-08T00:48:38.536Z,100588.28
2023-04-08T00:51:22.404Z,100580.25
2023-04-08T00:54:06.738Z,100573.00
2023-04-08T00:56:52.210Z,100577.06
2023-04-08T00:59:37.188Z,100575.16
2023-04-08T01:02:30.347Z,100584.72
2023-04-08T01:05:21.307Z,100581.13
2023-04-08T01:08:08.059Z,100540.78
2023-04-08T01:10:55.149Z,100569.50
2023-04-08T01:13:43.236Z,100559.91
2023-04-08T01:16:28.190Z,100527.47
2023-04-08T01:19:19.591Z,100509.72
2023-04-08T01:22:12.655Z,100531.13
2023-04-08T01:25:02.549Z,100561.75
2023-04-08T01:27:50.141Z,100524.63
2023-04-08T01:30:35.994Z,100536.44
2023-04-08T01:33:22.249Z,100569.53
2023-04-08T01:36:08.104Z,100529.88
2023-04-08T01:38:54.853Z,100523.41
2023-04-08T01:41:39.700Z,100580.22
2023-04-08T01:44:27.505Z,100567.56
2023-04-08T01:47:14.537Z,100570.84
2023-04-08T01:49:59.853Z,100511.78
2023-04-08T01:52:46.138Z,100562.00
2023-04-08T01:55:33.348Z,100555.09
2023-04-08T01:58:21.463Z,100557.16
2023-04-08T02:01:09.161Z,100558.94
2023-04-08T02:03:57.801Z,100543.91
2023-04-08T02:06:41.636Z,100556.72
2023-04-08T02:09:26.388Z,100566.66
2023-04-08T02:12:10.267Z,100571.16
2023-04-08T02:14:54.731Z,100578.00
2023-04-08T02:17:45.543Z,100576.47
2023-04-08T02:20:38.912Z,100574.81
2023-04-08T02:23:25.662Z,100533.03
2023-04-08T02:26:15.778Z,100582.50
2023-04-08T02:29:00.204Z,100592.97
2023-04-08T02:31:45.462Z,100591.09
2023-04-08T02:34:33.398Z,100592.69
2023-04-08T02:37:18.327Z,100600.66
2023-04-08T02:40:02.106Z,100593.78
2023-04-08T02:42:46.991Z,100589.00
2023-04-08T02:45:33.649Z,100596.75
2023-04-08T02:48:17.500Z,100593.75
2023-04-08T02:51:02.583Z,100597.25
2023-04-08T02:53:46.361Z,100585.25
2023-04-08T02:56:30.217Z,100573.31
2023-04-08T02:59:14.365Z,100543.72
2023-04-08T03:01:58.306Z,100585.38
2023-04-08T03:04:42.090Z,100592.81
2023-04-08T03:07:27.395Z,100580.97
2023-04-08T03:10:11.754Z,100603.59
2023-04-08T03:12:55.905Z,100601.56
2023-04-08T03:15:39.626Z,100612.88
2023-04-08T03:18:23.401Z,100611.25
2023-04-08T03:21:07.275Z,100614.72
2023-04-08T03:23:52.678Z,100609.53
2023-04-08T03:26:36.458Z,100616.31
2023-04-08T03:29:20.388Z,100604.16
2023-04-08T03:32:04.499Z,100617.72
2023-04-08T03:34:51.283Z,100606.38
2023-04-08T03:37:35.272Z,100621.00
2023-04-08T03:40:20.730Z,100622.78
2023-04-08T03:43:05.842Z,100585.75
2023-04-08T03:45:49.692Z,100630.13
2023-04-08T03:48:33.893Z,100608.28
2023-04-08T03:51:17.632Z,100634.19
2023-04-08T03:54:01.432Z,100640.91
2023-04-08T03:56:46.713Z,100641.72
2023-04-08T03:59:30.807Z,100646.41
2023-04-08T04:02:14.718Z,100642.91
2023-04-08T04:04:58.633Z,100604.38
2023-04-08T04:07:42.370Z,100639.06
2023-04-08T04:10:26.188Z,100594.53
2023-04-08T04:13:12.011Z,100648.66
2023-04-08T04:15:55.850Z,100649.19
2023-04-08T04:18:39.792Z,100663.31
2023-04-08T04:21:23.604Z,100654.53
2023-04-08T04:24:07.712Z,100657.38
2023-04-08T04:26:51.518Z,100660.25
2023-04-08T04:29:36.624Z,100661.53
2023-04-08T04:32:20.675Z,100653.72
2023-04-08T04:35:04.881Z,100659.09
2023-04-08T04:37:50.319Z,100660.66
2023-04-08T04:40:34.168Z,100643.81
2023-04-08T04:43:17.964Z,100654.78
2023-04-08T04:46:04.209Z,100646.63
2023-04-08T04:48:48.240Z,100644.91
2023-04-08T04:51:32.845Z,100659.03
2023-04-08T04:54:16.671Z,100657.34
2023-04-08T04:57:01.198Z,100662.06
2023-04-08T04:59:45.094Z,100663.94
2023-04-08T05:02:30.477Z,100667.41
2023-04-08T05:05:14.409Z,100665.47
2023-04-08T05:07:58.119Z,100629.44
2023-04-08T05:10:42.951Z,100668.31
2023-04-08T05:13:26.719Z,100673.69
2023-04-08T05:16:10.727Z,100641.28
2023-04-08T05:18:55.942Z,100642.88
2023-04-08T05:21:39.818Z,100666.50
2023-04-08T05:24:23.638Z,100661.03
2023-04-08T05:27:07.494Z,100664.97
2023-04-08T05:29:51.270Z,100671.88
2023-04-08T05:32:35.251Z,100661.63
2023-04-08T05:35:20.640Z,100663.78
2023-04-08T05:38:04.454Z,100676.03
2023-04-08T05:40:48.396Z,100668.31
2023-04-08T05:43:34.289Z,100665.94
2023-04-08T05:46:18.236Z,100669.56
2023-04-08T05:49:02.025Z,100656.75
2023-04-08T05:51:47.350Z,100674.00
2023-04-08T05:54:31.175Z,100666.66
2023-04-08T05:57:15.022Z,100659.19
2023-04-08T05:59:58.825Z,100659.56
2023-04-08T06:02:42.859Z,100636.34
2023-04-08T06:05:26.984Z,100674.69
2023-04-08T06:08:12.172Z,100672.78
2023-04-08T06:10:56.001Z,100669.50
2023-04-08T06:13:39.817Z,100658.66
2023-04-08T06:16:23.653Z,100665.78
2023-04-08T06:19:07.516Z,100668.34
2023-04-08T06:21:51.633Z,100665.03
2023-04-08T06:24:36.781Z,100664.75
2023-04-08T06:27:21.600Z,100679.88
2023-04-08T06:30:05.791Z,100662.38
2023-04-08T06:32:49.761Z,100664.94
2023-04-08T06:35:33.580Z,100665.44
2023-04-08T06:38:17.533Z,100669.16
2023-04-08T06:41:05.446Z,100648.97
2023-04-08T06:43:49.235Z,100667.38
2023-04-08T06:46:33.098Z,100649.53
2023-04-08T06:49:17.064Z,100661.91
2023-04-08T06:52:01.007Z,100668.44
2023-04-08T06:54:44.973Z,100677.69
2023-04-08T06:57:30.302Z,100675.41
2023-04-08T07:00:14.785Z,100673.03
2023-04-08T07:02:58.629Z,100674.41
2023-04-08T07:05:43.077Z,100674.44
2023-04-08T07:08:27.380Z,100675.81
2023-04-08T07:11:11.351Z,100686.63
2023-04-08T07:13:56.593Z,100686.25
2023-04-08T07:16:40.580Z,100695.66
2023-04-08T07:19:24.974Z,100683.31
2023-04-08T07:22:08.850Z,100695.06
2023-04-08T07:24:52.564Z,100697.63
2023-04-08T07:27:36.486Z,100692.13
2023-04-08T07:30:22.347Z,100684.97
2023-04-08T07:33:06.448Z,100697.38
2023-04-08T07:35:50.401Z,100701.44
2023-04-08T07:38:34.772Z,100692.03
2023-04-08T07:41:18.613Z,100698.97
2023-04-08T07:44:02.562Z,100691.81
2023-04-08T07:46:51.037Z,100648.84
2023-04-08T07:49:34.977Z,100687.47
2023-04-08T07:52:18.758Z,100699.50
2023-04-08T07:55:02.659Z,100698.56
2023-04-08T07:57:47.341Z,100679.75
2023-04-08T08:00:31.690Z,100695.63
2023-04-08T08:03:16.905Z,100704.44
2023-04-08T08:06:00.796Z,100696.75
2023-04-08T08:08:44.709Z,100704.56
2023-04-08T08:11:28.652Z,100704.22
2023-04-08T08:14:13.950Z,100705.41
2023-04-08T08:16:58.047Z,100697.97
2023-04-08T08:19:43.353Z,100710.16
2023-04-08T08:22:27.432Z,100696.28
2023-04-08T08:25:11.532Z,100714.69
2023-04-08T08:27:56.239Z,100702.56
2023-04-08T08:30:40.010Z,100713.13
2023-04-08T08:33:23.827Z,100714.06
2023-04-08T08:36:09.221Z,100716.00
2023-04-08T08:38:54.201Z,100719.25
2023-04-08T08:41:38.169Z,100727.22
2023-04-08T08:44:21.897Z,100720.41
2023-04-08T08:47:06.674Z,100718.84
2023-04-08T08:49:51.184Z,100725.06
2023-04-08T08:52:36.403Z,100729.22
2023-04-08T08:55:36.323Z,100595.78
2023-04-08T08:58:28.143Z,100728.56
2023-04-08T09:01:33.615Z,100717.50
2023-04-08T09:04:20.467Z,100741.28
2023-04-08T09:07:11.995Z,100746.63
2023-04-08T09:09:58.875Z,100714.88
2023-04-08T09:12:56.723Z,100746.88
2023-04-08T09:16:02.637Z,100746.91
2023-04-08T09:18:48.921Z,100734.47
2023-04-08T09:21:33.167Z,100749.38
2023-04-08T09:24:30.370Z,100739.50
2023-04-08T09:27:15.585Z,100717.47
2023-04-08T09:30:14.804Z,100744.97
2023-04-08T09:33:01.366Z,100708.03
2023-04-08T09:35:46.825Z,100735.13
2023-04-08T09:38:31.175Z,100734.13
2023-04-08T09:41:16.956Z,100746.72
2023-04-08T09:44:05.129Z,100736.25
2023-04-08T09:46:58.239Z,100733.16
2023-04-08T09:49:51.153Z,100733.69
2023-04-08T09:52:40.264Z,100732.06
2023-04-08T09:55:26.593Z,100729.75
2023-04-08T09:58:17.493Z,100731.94
2023-04-08T10:01:03.768Z,100727.13
2023-04-08T10:03:53.937Z,100730.44
2023-04-08T10:06:39.607Z,100721.22
2023-04-08T10:09:24.069Z,100717.16
2023-04-08T10:12:08.085Z,100727.69
2023-04-08T10:15:26.099Z,100724.13
2023-04-08T10:18:34.478Z,100724.13
2023-04-08T10:21:37.727Z,100669.03
2023-04-08T10:24:25.780Z,100719.28
2023-04-08T10:27:40.899Z,100705.19
2023-04-08T10:30:44.261Z,100702.41
2023-04-08T10:33:38.467Z,100689.97
2023-04-08T10:36:24.661Z,100706.59
2023-04-08T10:39:08.522Z,100656.97
2023-04-08T10:41:52.576Z,100710.91
2023-04-08T10:44:36.458Z,100700.59
2023-04-08T10:47:28.576Z,100659.38
2023-04-08T10:50:18.715Z,100717.09
2023-04-08T10:53:02.615Z,100710.06
2023-04-08T10:55:46.739Z,100711.34
2023-04-08T10:58:31.474Z,100724.13
2023-04-08T11:01:15.341Z,100714.34
2023-04-08T11:04:00.443Z,100711.41
2023-04-08T11:06:46.981Z,100685.19
2023-04-08T11:09:30.736Z,100709.41
2023-04-08T11:12:18.204Z,100704.88
2023-04-08T11:15:03.219Z,100718.19
2023-04-08T11:17:49.029Z,100707.50
2023-04-08T11:20:36.240Z,100677.06
2023-04-08T11:23:22.936Z,100678.78
2023-04-08T11:26:07.201Z,100701.00
2023-04-08T11:28:52.420Z,100696.78
2023-04-08T11:31:37.283Z,100681.84
2023-04-08T11:34:25.114Z,100692.03
2023-04-08T11:37:09.026Z,100646.09
2023-04-08T11:39:56.249Z,100692.41
2023-04-08T11:42:40.978Z,100674.19
2023-04-08T11:45:24.788Z,100657.53
2023-04-08T11:48:12.629Z,100670.88
2023-04-08T11:51:04.926Z,100675.38
2023-04-08T11:53:49.530Z,100673.84
2023-04-08T11:56:46.873Z,100661.50
2023-04-08T11:59:30.933Z,100644.53
2023-04-08T12:02:14.920Z,100612.41
2023-04-08T12:04:58.881Z,100665.13
2023-04-08T12:07:42.904Z,100658.75
2023-04-08T12:10:26.925Z,100668.16
2023-04-08T12:13:12.196Z,100670.38
2023-04-08T12:15:56.419Z,100635.94
2023-04-08T12:18:40.251Z,100654.63
2023-04-08T12:21:24.046Z,100664.84
2023-04-08T12:24:07.831Z,100658.00
2023-04-08T12:26:51.743Z,100658.25
2023-04-08T12:29:37.073Z,100627.41
2023-04-08T12:32:21.743Z,100651.97
2023-04-08T12:35:06.382Z,100644.06
2023-04-08T12:37:50.273Z,100641.25
2023-04-08T12:40:34.048Z,100483.31
2023-04-08T12:43:17.912Z,100630.84
2023-04-08T12:46:03.468Z,100627.88
2023-04-08T12:48:48.672Z,100630.69
2023-04-08T12:51:32.909Z,100628.25
2023-04-08T12:54:16.884Z,100629.47
2023-04-08T12:57:01.639Z,100633.41
2023-04-08T12:59:45.363Z,100629.50
2023-04-08T13:02:30.815Z,100615.84
2023-04-08T13:05:15.022Z,100626.00
2023-04-08T13:07:58.752Z,100624.53
2023-04-08T13:10:43.417Z,100615.69
2023-04-08T13:13:27.197Z,100590.63
2023-04-08T13:16:11.123Z,100623.28
2023-04-08T13:18:56.327Z,100625.00
2023-04-08T13:21:40.075Z,100588.81
2023-04-08T13:24:24.121Z,100617.03
2023-04-08T13:27:07.925Z,100619.06
2023-04-08T13:29:51.747Z,100623.25
2023-04-08T13:32:35.843Z,100618.19
2023-04-08T13:35:21.413Z,100605.47
2023-04-08T13:38:05.246Z,100628.47
2023-04-08T13:40:50.542Z,100621.25
2023-04-08T13:43:34.677Z,100622.56
2023-04-08T13:46:19.448Z,100626.88
2023-04-08T13:49:04.478Z,100503.47
2023-04-08T13:51:50.192Z,100618.84
2023-04-08T13:54:34.450Z,100624.75
2023-04-08T13:57:18.839Z,100581.00
2023-04-08T14:00:03.423Z,100627.50
2023-04-08T14:02:54.811Z,100630.75
2023-04-08T14:05:39.424Z,100623.34
2023-04-08T14:08:26.756Z,100617.28
2023-04-08T14:11:11.666Z,100605.13
2023-04-08T14:13:56.359Z,100595.88
2023-04-08T14:16:42.296Z,100622.00
2023-04-08T14:19:27.001Z,100618.28
2023-04-08T14:22:11.582Z,100619.94
2023-04-08T14:24:57.674Z,100458.81
2023-04-08T14:27:54.676Z,100607.50
2023-04-08T14:30:42.370Z,100605.88
2023-04-08T14:33:27.610Z,100601.94
2023-04-08T14:36:11.918Z,100614.94
2023-04-08T14:38:57.076Z,100613.75
2023-04-08T14:41:43.046Z,100606.66
2023-04-08T14:44:27.520Z,100608.56
2023-04-08T14:47:12.657Z,100609.78
2023-04-08T14:49:57.079Z,100610.09
2023-04-08T14:52:41.574Z,100584.84
2023-04-08T14:55:26.587Z,100624.59
2023-04-08T14:58:12.178Z,100467.59
2023-04-08T15:00:56.776Z,100622.84
2023-04-08T15:03:41.639Z,100618.38
2023-04-08T15:06:29.509Z,100613.09
2023-04-08T15:09:14.427Z,100594.78
2023-04-08T15:11:59.218Z,100583.09
2023-04-08T15:14:44.965Z,100607.34
2023-04-08T15:17:29.883Z,100612.56
2023-04-08T15:20:15.366Z,100608.28
2023-04-08T15:23:00.219Z,100612.63
2023-04-08T15:25:45.136Z,100584.44
2023-04-08T15:28:29.909Z,100606.56
2023-04-08T15:31:16.114Z,100609.81
2023-04-08T15:34:00.958Z,100568.44
2023-04-08T15:36:45.498Z,100607.84
2023-04-08T15:39:29.511Z,100608.25
2023-04-08T15:42:13.364Z,100597.31
2023-04-08T15:44:57.394Z,100611.69
2023-04-08T15:47:42.877Z,100612.19
2023-04-08T15:50:30.256Z,100616.84
2023-04-08T15:53:14.320Z,100592.63
2023-04-08T15:55:58.135Z,100615.66
2023-04-08T15:58:42.041Z,100623.00
2023-04-08T16:01:26.276Z,100615.00
2023-04-08T16:04:12.199Z,100599.72
2023-04-08T16:06:56.185Z,100624.81
2023-04-08T16:09:40.063Z,100626.50
2023-04-08T16:12:25.567Z,100630.88
2023-04-08T16:15:10.513Z,100635.25
2023-04-08T16:17:54.958Z,100617.66
2023-04-08T16:20:40.623Z,100625.41
2023-04-08T16:23:25.130Z,100618.25
2023-04-08T16:26:09.682Z,100632.13
2023-04-08T16:28:55.094Z,100643.94
2023-04-08T16:31:40.189Z,100629.56
2023-04-08T16:34:24.534Z,100634.69
2023-04-08T16:37:11.475Z,100643.59
2023-04-08T16:39:57.834Z,100620.34
2023-04-08T16:42:43.445Z,100644.63
2023-04-08T16:45:31.793Z,100662.19
2023-04-08T16:48:17.427Z,100637.19
2023-04-08T16:51:06.334Z,100663.78
2023-04-08T16:53:53.856Z,100664.28
2023-04-08T16:56:45.024Z,100664.75
2023-04-08T16:59:31.115Z,100666.91
2023-04-08T17:02:17.049Z,100633.88
2023-04-08T17:05:02.155Z,100667.19
2023-04-08T17:07:48.408Z,100661.72
2023-04-08T17:10:34.903Z,100633.75
2023-04-08T17:13:20.146Z,100657.91
2023-04-08T17:16:06.389Z,100663.19
2023-04-08T17:18:52.502Z,100634.63
2023-04-08T17:21:37.711Z,100669.16
2023-04-08T17:24:22.020Z,100679.56
2023-04-08T17:27:08.503Z,100680.63
2023-04-08T17:29:59.186Z,100684.72
2023-04-08T17:32:44.522Z,100687.47
2023-04-08T17:35:28.882Z,100687.88
2023-04-08T17:38:13.970Z,100693.06
2023-04-08T17:40:58.965Z,100695.06
2023-04-08T17:43:46.467Z,100672.41
2023-04-08T17:46:33.313Z,100705.69
2023-04-08T17:49:18.449Z,100708.00
2023-04-08T17:52:03.705Z,100688.53
2023-04-08T17:54:49.025Z,100720.91
2023-04-08T17:57:37.057Z,100716.69
2023-04-08T18:00:23.337Z,100721.19
2023-04-08T18:03:11.618Z,100713.69
2023-04-08T18:05:57.112Z,100727.16
2023-04-08T18:08:42.180Z,100727.59
2023-04-08T18:11:28.156Z,100721.94
2023-04-08T18:14:13.740Z,100727.50
2023-04-08T18:17:00.472Z,100722.00
2023-04-08T18:19:45.505Z,100723.00
2023-04-08T18:22:35.221Z,100735.56
2023-04-08T18:25:24.020Z,100696.34
2023-04-08T18:28:09.759Z,100725.81
2023-04-08T18:30:55.892Z,100742.94
2023-04-08T18:33:42.665Z,100744.41
2023-04-08T18:36:30.885Z,100745.03
2023-04-08T18:39:15.548Z,100749.03
2023-04-08T18:42:03.692Z,100747.25
2023-04-08T18:44:48.106Z,100750.09
2023-04-08T18:47:33.128Z,100741.38
2023-04-08T18:50:19.887Z,100742.91
2023-04-08T18:53:05.329Z,100731.28
2023-04-08T18:55:52.049Z,100723.50
2023-04-08T18:58:37.805Z,100748.94
2023-04-08T19:01:24.464Z,100738.00
2023-04-08T19:04:09.284Z,100738.91
2023-04-08T19:06:58.742Z,100742.69
2023-04-08T19:09:43.866Z,100735.72
2023-04-08T19:12:29.130Z,100732.38
2023-04-08T19:15:18.417Z,100732.81
2023-04-08T19:18:02.874Z,100736.91
2023-04-08T19:20:49.228Z,100743.13
2023-04-08T19:23:35.838Z,100694.13
2023-04-08T19:26:20.641Z,100741.59
2023-04-08T19:29:05.647Z,100745.63
2023-04-08T19:31:50.899Z,100748.16
2023-04-08T19:34:38.731Z,100746.28
2023-04-08T19:37:23.292Z,100746.84
2023-04-08T19:40:11.106Z,100744.78
2023-04-08T19:42:58.738Z,100719.63
2023-04-08T19:45:44.281Z,100727.91
2023-04-08T19:48:29.599Z,100693.75
2023-04-08T19:51:21.222Z,100718.16
2023-04-08T19:54:09.427Z,100696.38
2023-04-08T19:56:58.182Z,100705.00
2023-04-08T19:59:45.672Z,100687.81
2023-04-08T20:02:32.856Z,100696.75
2023-04-08T20:05:19.731Z,100707.91
2023-04-08T20:08:06.201Z,100725.72
2023-04-08T20:10:52.879Z,100694.59
2023-04-08T20:13:40.842Z,100739.16
2023-04-08T20:16:26.340Z,100733.75
2023-04-08T20:19:12.742Z,100740.00
2023-04-08T20:21:58.204Z,100699.72
2023-04-08T20:24:44.659Z,100694.13
2023-04-08T20:27:29.978Z,100735.69
2023-04-08T20:30:16.858Z,100730.19
2023-04-08T20:33:02.281Z,100689.03
2023-04-08T20:35:46.905Z,100697.97
2023-04-08T20:38:35.892Z,100690.06
2023-04-08T20:41:21.987Z,100730.78
2023-04-08T20:44:11.673Z,100700.88
2023-04-08T20:46:58.831Z,100709.41
2023-04-08T20:49:44.220Z,100732.75
2023-04-08T20:52:29.561Z,100698.22
2023-04-08T20:55:15.155Z,100688.41
2023-04-08T20:58:01.524Z,100693.38
2023-04-08T21:00:48.345Z,100689.22
2023-04-08T21:03:39.012Z,100727.88
2023-04-08T21:06:33.091Z,100707.41
2023-04-08T21:09:24.360Z,100743.00
2023-04-08T21:12:20.277Z,100694.44
2023-04-08T21:15:09.980Z,100701.06
2023-04-08T21:17:59.279Z,100711.06
2023-04-08T21:20:53.869Z,100701.59
2023-04-08T21:23:44.718Z,100699.66
2023-04-08T21:26:35.664Z,100709.78
2023-04-08T21:29:27.543Z,100700.19
2023-04-08T21:32:16.264Z,100738.81
2023-04-08T21:35:06.894Z,100735.31
2023-04-08T21:41:02.993Z,100738.31
2023-04-08T21:43:55.154Z,100724.53
2023-04-08T21:46:42.845Z,100734.28
2023-04-08T21:49:34.162Z,100731.28
2023-04-08T21:52:22.175Z,100734.94
2023-04-08T21:55:11.762Z,100742.53
2023-04-08T21:57:55.737Z,100741.28
2023-04-08T22:00:40.067Z,100743.47
2023-04-08T22:03:23.992Z,100690.66
2023-04-08T22:06:10.946Z,100743.63
2023-04-08T22:08:56.713Z,100742.13
2023-04-08T22:11:41.835Z,100741.28
2023-04-08T22:14:25.719Z,100739.19
2023-04-08T22:17:09.661Z,100745.97
2023-04-08T22:19:53.365Z,100754.94
2023-04-08T22:22:37.135Z,100750.88
2023-04-08T22:25:20.991Z,100736.47
2023-04-08T22:28:06.298Z,100741.22
2023-04-08T22:30:50.689Z,100741.44
2023-04-08T22:33:34.610Z,100741.16
2023-04-08T22:36:18.373Z,100746.84
2023-04-08T22:39:02.325Z,100753.22
2023-04-08T22:41:46.800Z,100749.78
2023-04-08T22:44:31.953Z,100744.25
2023-04-08T22:47:15.721Z,100745.09
2023-04-08T22:49:59.678Z,100743.09
2023-04-08T22:52:43.538Z,100700.97
2023-04-08T22:55:27.434Z,100727.56
2023-04-08T22:58:11.377Z,100733.75
2023-04-08T23:00:56.874Z,100720.38
2023-04-08T23:03:40.741Z,100715.19
2023-04-08T23:06:24.614Z,100728.31
2023-04-08T23:09:08.425Z,100721.09
2023-04-08T23:11:52.287Z,100724.53
2023-04-08T23:14:35.988Z,100716.63
2023-04-08T23:17:21.264Z,100719.53
2023-04-08T23:20:05.641Z,100719.63
2023-04-08T23:22:49.413Z,100713.06
2023-04-08T23:25:36.411Z,100715.72
2023-04-08T23:28:20.325Z,100696.13
2023-04-08T23:31:05.916Z,100718.31
2023-04-08T23:33:51.074Z,100710.19
2023-04-08T23:36:34.826Z,100718.53
2023-04-08T23:39:18.890Z,100714.00
2023-04-08T23:42:02.935Z,100716.81
2023-04-08T23:44:48.360Z,100719.53
2023-04-08T23:47:32.172Z,100726.09
2023-04-08T23:50:17.512Z,100726.09
2023-04-08T23:53:01.396Z,100728.19
2023-04-08T23:55:45.365Z,100730.19
2023-04-08T23:58:29.194Z,100739.78
